Time;durP1;ratioP1;P1;durP2;ratioP2;P2;SDS_P1;SDS_P2;PMS_P1;PMS_P2;Temp;Humidity;BMP_temperature;BMP_pressure;BME280_temperature;BME280_humidity;BME280_pressure;Samples;Min_cycle;Max_cycle;Signal;HPM_P1;HPM_P2
2023/05/20 00:00:58;;;;;;;22.45;17.25;;;12.70;99.90;;;;;;6152854;23;20268;-83
2023/05/20 00:03:26;;;;;;;20.92;17.60;;;12.80;99.90;;;;;;6145050;23;20418;-81
2023/05/20 00:05:53;;;;;;;22.60;18.38;;;12.70;99.90;;;;;;6131546;23;20186;-77
2023/05/20 00:08:20;;;;;;;20.92;18.55;;;12.80;99.90;;;;;;6131062;23;20233;-78
2023/05/20 00:10:47;;;;;;;24.85;18.20;;;12.80;99.90;;;;;;6131076;23;20269;-79
2023/05/20 00:13:14;;;;;;;27.65;20.35;;;12.70;99.90;;;;;;6107260;23;20182;-79
2023/05/20 00:15:41;;;;;;;20.15;16.02;;;12.60;99.90;;;;;;6131287;23;20189;-77
2023/05/20 00:18:08;;;;;;;24.92;18.40;;;12.60;99.90;;;;;;6134591;23;20327;-79
2023/05/20 00:20:35;;;;;;;28.20;19.58;;;12.70;99.90;;;;;;6132752;23;20178;-79
2023/05/20 00:23:04;;;;;;;23.10;19.83;;;12.70;99.90;;;;;;6135109;23;20162;-78
2023/05/20 00:25:31;;;;;;;23.15;17.25;;;12.70;99.90;;;;;;6136459;23;20178;-77
2023/05/20 00:27:59;;;;;;;23.33;19.85;;;12.70;99.90;;;;;;6142887;23;20221;-79
2023/05/20 00:30:26;;;;;;;27.15;19.42;;;12.70;99.90;;;;;;6149353;23;20177;-82
2023/05/20 00:32:53;;;;;;;28.38;20.25;;;12.60;99.90;;;;;;6151465;23;20168;-78
2023/05/20 00:35:20;;;;;;;23.73;19.63;;;12.70;99.90;;;;;;6152498;23;20165;-79
2023/05/20 00:37:47;;;;;;;22.38;17.92;;;12.70;99.90;;;;;;6152533;23;20180;-83
2023/05/20 00:40:14;;;;;;;24.60;18.40;;;12.60;99.90;;;;;;6151162;23;20178;-79
2023/05/20 00:42:41;;;;;;;20.58;17.38;;;12.60;99.90;;;;;;6149765;23;20173;-80
2023/05/20 00:45:09;;;;;;;24.75;19.20;;;12.60;99.90;;;;;;6151494;23;20173;-83
2023/05/20 00:47:36;;;;;;;23.73;17.70;;;12.60;99.90;;;;;;6148799;23;20256;-82
2023/05/20 00:50:03;;;;;;;25.83;19.40;;;12.70;99.90;;;;;;6148430;23;20185;-80
2023/05/20 00:52:31;;;;;;;21.75;17.58;;;12.60;99.90;;;;;;6145340;23;20169;-83
2023/05/20 00:54:58;;;;;;;22.23;17.25;;;12.70;99.90;;;;;;6143566;23;20170;-83
2023/05/20 00:57:27;;;;;;;27.23;18.30;;;12.70;99.90;;;;;;6132701;23;20182;-79
2023/05/20 00:59:54;;;;;;;20.52;17.15;;;12.80;99.90;;;;;;6131131;23;20181;-81
2023/05/20 01:02:23;;;;;;;26.80;19.10;;;12.70;99.90;;;;;;6105552;23;20236;-84
2023/05/20 01:04:51;;;;;;;22.95;17.30;;;12.70;99.90;;;;;;6131454;23;20756;-82
2023/05/20 01:07:18;;;;;;;23.48;17.35;;;12.70;99.90;;;;;;6130968;23;20197;-79
2023/05/20 01:09:48;;;;;;;21.85;18.13;;;12.80;99.90;;;;;;6130433;23;20419;-81
2023/05/20 01:12:24;;;;;;;21.17;16.52;;;12.70;99.90;;;;;;6131730;23;20162;-82
2023/05/20 01:15:11;;;;;;;23.50;16.98;;;12.50;99.90;;;;;;6131629;23;20225;-81
2023/05/20 01:17:43;;;;;;;20.70;16.25;;;12.60;99.90;;;;;;6130398;23;20248;-80
2023/05/20 01:20:12;;;;;;;23.10;17.80;;;12.60;99.90;;;;;;6129313;23;20410;-81
2023/05/20 01:22:46;;;;;;;21.15;16.23;;;12.50;99.90;;;;;;6103418;23;20545;-81
2023/05/20 01:25:14;;;;;;;24.00;17.08;;;12.50;99.90;;;;;;6129521;23;20170;-78
2023/05/20 01:27:41;;;;;;;18.75;15.05;;;12.50;99.90;;;;;;6129296;23;20264;-77
2023/05/20 01:30:08;;;;;;;18.45;14.63;;;12.50;99.90;;;;;;6129211;23;20178;-83
2023/05/20 01:32:41;;;;;;;19.95;14.85;;;12.50;99.90;;;;;;6130500;23;20192;-84
2023/05/20 01:35:09;;;;;;;19.80;15.38;;;12.50;99.90;;;;;;6129972;23;20213;-83
2023/05/20 01:37:39;;;;;;;20.80;15.80;;;12.50;99.90;;;;;;6130232;23;20281;-84
2023/05/20 01:40:12;;;;;;;18.90;14.70;;;12.70;99.90;;;;;;6130275;23;20186;-78
2023/05/20 01:42:41;;;;;;;17.10;14.40;;;12.70;99.90;;;;;;6129740;23;20162;-83
2023/05/20 01:45:10;;;;;;;18.92;13.05;;;12.80;99.90;;;;;;6129048;23;20186;-78
2023/05/20 01:47:37;;;;;;;24.15;14.68;;;12.80;99.90;;;;;;6104144;23;20292;-79
2023/05/20 01:50:05;;;;;;;19.73;14.48;;;12.70;99.90;;;;;;6133200;23;20233;-78
2023/05/20 01:52:32;;;;;;;20.45;14.70;;;12.70;99.90;;;;;;6133000;23;20236;-78
2023/05/20 01:54:59;;;;;;;21.55;15.23;;;12.60;99.90;;;;;;6128132;23;20213;-78
2023/05/20 01:57:26;;;;;;;21.45;17.08;;;12.60;99.90;;;;;;6129192;23;20513;-82
2023/05/20 01:59:53;;;;;;;18.27;14.75;;;12.60;99.90;;;;;;6102948;23;20185;-80
2023/05/20 02:02:20;;;;;;;16.92;13.82;;;12.70;99.90;;;;;;6104605;23;20189;-81
2023/05/20 02:04:49;;;;;;;17.73;12.95;;;12.80;99.90;;;;;;6129773;23;20185;-78
2023/05/20 02:07:20;;;;;;;24.25;16.40;;;12.70;99.90;;;;;;6130138;23;20217;-82
2023/05/20 02:09:47;;;;;;;21.88;16.27;;;12.60;99.90;;;;;;6128588;23;20250;-82
2023/05/20 02:12:17;;;;;;;21.10;14.90;;;12.50;99.90;;;;;;6128345;23;20182;-80
2023/05/20 02:14:46;;;;;;;18.95;13.68;;;12.50;99.90;;;;;;6128060;23;20186;-78
2023/05/20 02:17:15;;;;;;;18.40;14.27;;;12.50;99.90;;;;;;6128750;23;20186;-80
2023/05/20 02:19:45;;;;;;;15.52;13.90;;;12.50;99.90;;;;;;6130286;23;20362;-79
2023/05/20 02:22:13;;;;;;;18.20;14.00;;;12.50;99.90;;;;;;6129997;23;20212;-79
2023/05/20 02:24:42;;;;;;;19.17;15.40;;;12.50;99.90;;;;;;6105357;23;20182;-83
2023/05/20 02:27:09;;;;;;;20.40;14.25;;;12.30;99.90;;;;;;6129292;23;20182;-79
2023/05/20 02:29:36;;;;;;;20.75;16.00;;;12.50;99.90;;;;;;6129106;23;20378;-76
2023/05/20 02:32:05;;;;;;;18.67;14.75;;;12.40;99.90;;;;;;6103449;23;20196;-82
2023/05/20 02:34:34;;;;;;;19.63;16.58;;;12.50;99.90;;;;;;6129045;23;20709;-81
2023/05/20 02:37:01;;;;;;;19.02;16.13;;;12.50;99.90;;;;;;6104626;23;20242;-82
2023/05/20 02:39:28;;;;;;;20.38;15.00;;;12.50;99.90;;;;;;6131793;23;20185;-81
2023/05/20 02:41:55;;;;;;;22.77;15.20;;;12.40;99.90;;;;;;6106021;23;20190;-80
2023/05/20 02:44:22;;;;;;;21.13;15.98;;;12.30;99.90;;;;;;6107036;23;20188;-78
2023/05/20 02:46:50;;;;;;;25.42;15.32;;;12.30;99.90;;;;;;6131635;23;20523;-79
2023/05/20 02:49:20;;;;;;;21.75;15.70;;;12.10;99.90;;;;;;6131741;23;20209;-82
2023/05/20 02:51:53;;;;;;;20.90;16.05;;;12.30;99.90;;;;;;6133179;23;20221;-83
2023/05/20 02:54:20;;;;;;;19.60;14.93;;;12.40;99.90;;;;;;6133295;23;20169;-81
2023/05/20 02:56:47;;;;;;;18.48;14.07;;;12.50;99.90;;;;;;6131155;23;20189;-78
2023/05/20 02:59:14;;;;;;;18.17;13.60;;;12.50;99.90;;;;;;6131328;23;20423;-81
2023/05/20 03:01:41;;;;;;;16.83;14.45;;;12.40;99.90;;;;;;6105901;23;20192;-78
2023/05/20 03:04:10;;;;;;;20.23;14.60;;;12.50;99.90;;;;;;6131540;23;20194;-79
2023/05/20 03:06:37;;;;;;;18.95;14.13;;;12.40;99.90;;;;;;6130885;23;20186;-78
2023/05/20 03:09:04;;;;;;;24.02;15.63;;;12.40;99.90;;;;;;6105223;23;20264;-78
2023/05/20 03:11:31;;;;;;;21.23;15.60;;;12.40;99.90;;;;;;6130040;23;20574;-81
2023/05/20 03:13:59;;;;;;;25.48;16.35;;;12.40;99.90;;;;;;6132906;23;20577;-80
2023/05/20 03:16:29;;;;;;;19.45;14.38;;;12.40;99.90;;;;;;6130856;23;20185;-82
2023/05/20 03:19:02;;;;;;;18.30;14.50;;;12.40;99.90;;;;;;6132227;23;20166;-81
2023/05/20 03:21:32;;;;;;;19.48;15.10;;;12.50;99.90;;;;;;6106991;23;20185;-81
2023/05/20 03:24:03;;;;;;;21.40;16.83;;;12.60;99.90;;;;;;6129189;23;20411;-80
2023/05/20 03:26:32;;;;;;;22.08;14.32;;;12.50;99.90;;;;;;6130753;23;20422;-81
2023/05/20 03:29:00;;;;;;;21.75;17.25;;;12.50;99.90;;;;;;6131344;23;20316;-80
2023/05/20 03:31:27;;;;;;;21.63;15.30;;;12.60;99.90;;;;;;6132166;23;20605;-81
2023/05/20 03:33:54;;;;;;;20.23;15.88;;;12.70;99.90;;;;;;6106361;23;20418;-81
2023/05/20 03:36:21;;;;;;;22.70;16.23;;;12.80;99.90;;;;;;6104908;23;20185;-81
2023/05/20 03:38:48;;;;;;;21.83;14.88;;;12.60;99.90;;;;;;6131798;23;20253;-81
2023/05/20 03:41:19;;;;;;;20.77;15.27;;;12.40;99.90;;;;;;6132560;23;20548;-82
2023/05/20 03:43:48;;;;;;;20.95;15.18;;;12.30;99.90;;;;;;6132200;23;20245;-86
2023/05/20 03:46:16;;;;;;;19.20;14.20;;;12.50;99.90;;;;;;6131088;23;20225;-78
2023/05/20 03:48:43;;;;;;;20.13;13.88;;;12.40;99.90;;;;;;6129871;23;20210;-81
2023/05/20 03:51:12;;;;;;;18.35;14.55;;;12.50;99.90;;;;;;6130116;23;20630;-79
2023/05/20 03:53:39;;;;;;;19.27;15.10;;;12.40;99.90;;;;;;6129779;23;20182;-81
2023/05/20 03:56:07;;;;;;;19.52;15.20;;;12.40;99.90;;;;;;6128980;23;20237;-79
2023/05/20 03:58:34;;;;;;;22.92;14.60;;;12.40;99.90;;;;;;6130688;23;20190;-80
2023/05/20 04:01:02;;;;;;;22.13;16.60;;;12.50;99.90;;;;;;6131357;23;20494;-81
2023/05/20 04:03:30;;;;;;;20.83;15.30;;;12.40;99.90;;;;;;6132929;23;20268;-80
2023/05/20 04:05:57;;;;;;;16.20;13.95;;;12.30;99.90;;;;;;6133613;23;20178;-83
2023/05/20 04:08:27;;;;;;;16.67;13.68;;;12.40;99.90;;;;;;6133290;23;20215;-78
2023/05/20 04:10:55;;;;;;;21.73;15.38;;;12.40;99.90;;;;;;6131561;23;20204;-82
2023/05/20 04:13:24;;;;;;;18.98;16.15;;;12.40;99.90;;;;;;6131044;23;20216;-81
2023/05/20 04:15:52;;;;;;;22.58;16.88;;;12.50;99.90;;;;;;6104632;23;20188;-81
2023/05/20 04:18:20;;;;;;;19.30;13.65;;;12.50;99.90;;;;;;6129053;23;20193;-80
2023/05/20 04:20:47;;;;;;;22.30;14.48;;;12.40;99.90;;;;;;6103591;23;20186;-77
2023/05/20 04:23:14;;;;;;;26.38;16.38;;;12.60;99.90;;;;;;6104838;23;20268;-80
2023/05/20 04:25:41;;;;;;;17.15;13.80;;;12.50;99.90;;;;;;6131329;23;20177;-83
2023/05/20 04:28:09;;;;;;;23.83;16.52;;;12.70;99.90;;;;;;6131584;23;20721;-80
2023/05/20 04:30:36;;;;;;;22.05;14.27;;;12.70;99.90;;;;;;6139310;23;20221;-80
2023/05/20 04:33:03;;;;;;;16.35;14.07;;;12.60;99.90;;;;;;6153426;23;20166;-80
2023/05/20 04:35:30;;;;;;;20.45;14.38;;;12.50;99.90;;;;;;6152608;23;20225;-82
2023/05/20 04:38:01;;;;;;;21.27;15.65;;;12.60;99.90;;;;;;6151272;23;20186;-79
2023/05/20 04:40:29;;;;;;;21.77;15.65;;;12.70;99.90;;;;;;6147491;23;20168;-80
2023/05/20 04:43:03;;;;;;;17.38;14.15;;;12.60;99.90;;;;;;6147546;23;20198;-82
2023/05/20 04:45:35;;;;;;;23.63;14.02;;;12.60;99.90;;;;;;6145284;23;20229;-80
2023/05/20 04:48:02;;;;;;;15.27;12.65;;;12.70;99.90;;;;;;6117224;23;20209;-82
2023/05/20 04:50:30;;;;;;;21.95;15.95;;;12.80;99.90;;;;;;6146313;23;20182;-83
2023/05/20 04:52:57;;;;;;;18.58;13.18;;;12.80;99.90;;;;;;6149711;23;20257;-79
2023/05/20 04:55:26;;;;;;;20.10;14.75;;;12.90;99.90;;;;;;6145778;23;20465;-82
2023/05/20 04:57:53;;;;;;;18.27;12.93;;;13.00;99.90;;;;;;6132336;23;20193;-83
2023/05/20 05:00:20;;;;;;;19.88;14.65;;;13.00;99.90;;;;;;6129584;23;20216;-79
2023/05/20 05:02:48;;;;;;;17.55;13.40;;;12.90;99.90;;;;;;6129765;23;20270;-81
2023/05/20 05:05:16;;;;;;;24.83;16.58;;;12.90;99.90;;;;;;6103252;23;20733;-80
2023/05/20 05:07:44;;;;;;;21.80;14.50;;;13.00;99.90;;;;;;6129021;23;20193;-80
2023/05/20 05:10:12;;;;;;;22.95;14.23;;;13.00;99.90;;;;;;6129143;23;20249;-81
2023/05/20 05:12:40;;;;;;;23.35;17.00;;;13.00;99.90;;;;;;6129999;23;20249;-81
2023/05/20 05:15:07;;;;;;;19.48;15.50;;;13.00;99.90;;;;;;6130475;23;20178;-80
2023/05/20 05:17:35;;;;;;;19.48;14.98;;;12.90;99.90;;;;;;6128253;23;20212;-80
2023/05/20 05:20:03;;;;;;;19.50;14.10;;;13.00;99.90;;;;;;6127350;23;20213;-80
2023/05/20 05:22:30;;;;;;;19.73;15.05;;;13.00;99.90;;;;;;6129130;23;20181;-82
2023/05/20 05:24:57;;;;;;;26.35;14.73;;;13.20;99.90;;;;;;6128797;23;20181;-82
2023/05/20 05:27:24;;;;;;;21.67;16.13;;;13.10;99.90;;;;;;6127374;23;20169;-77
2023/05/20 05:29:51;;;;;;;23.40;15.65;;;13.10;99.90;;;;;;6127403;23;20395;-84
2023/05/20 05:32:25;;;;;;;24.67;15.43;;;13.20;99.90;;;;;;6128761;23;20738;-83
2023/05/20 05:34:57;;;;;;;22.50;16.25;;;13.30;99.90;;;;;;6127402;23;20197;-80
2023/05/20 05:37:24;;;;;;;23.30;16.65;;;13.30;99.90;;;;;;6127719;23;20213;-77
2023/05/20 05:39:51;;;;;;;27.30;16.50;;;13.10;99.90;;;;;;6127377;23;20190;-79
2023/05/20 05:42:19;;;;;;;19.40;15.15;;;12.90;99.90;;;;;;6128791;23;20220;-79
2023/05/20 05:44:47;;;;;;;22.02;14.85;;;13.00;99.90;;;;;;6128522;23;20245;-82
2023/05/20 05:47:14;;;;;;;20.10;15.43;;;13.00;99.90;;;;;;6151870;23;20192;-81
2023/05/20 05:49:41;;;;;;;22.92;14.93;;;13.20;99.90;;;;;;6102692;23;20236;-77
2023/05/20 05:52:08;;;;;;;21.05;15.63;;;13.20;99.90;;;;;;6127870;23;20192;-77
2023/05/20 05:54:35;;;;;;;29.98;16.70;;;13.10;99.90;;;;;;6127911;23;20237;-81
2023/05/20 05:57:03;;;;;;;20.73;15.15;;;13.20;99.90;;;;;;6127973;23;20215;-80
2023/05/20 05:59:32;;;;;;;20.00;16.42;;;13.10;99.90;;;;;;6127503;23;20200;-81
2023/05/20 06:01:59;;;;;;;23.52;16.73;;;13.10;99.90;;;;;;6129473;23;20210;-82
2023/05/20 06:04:26;;;;;;;26.65;17.67;;;13.10;99.90;;;;;;6128127;23;20272;-80
2023/05/20 06:06:53;;;;;;;27.60;16.15;;;13.10;99.90;;;;;;6128386;23;20192;-77
2023/05/20 06:09:20;;;;;;;22.65;15.93;;;13.10;99.90;;;;;;6129442;23;20213;-79
2023/05/20 06:11:47;;;;;;;23.00;16.15;;;13.10;99.90;;;;;;6128849;23;20249;-81
2023/05/20 06:14:14;;;;;;;26.45;16.00;;;13.20;99.90;;;;;;6129427;23;20209;-81
2023/05/20 06:16:43;;;;;;;24.65;16.20;;;13.20;99.90;;;;;;6130363;23;20192;-82
2023/05/20 06:19:12;;;;;;;24.30;18.05;;;13.20;99.90;;;;;;6130820;23;20517;-80
2023/05/20 06:21:40;;;;;;;21.02;15.45;;;13.20;99.90;;;;;;6131836;23;20261;-82
2023/05/20 06:24:07;;;;;;;23.92;17.70;;;13.30;99.90;;;;;;6131360;23;20216;-82
2023/05/20 06:26:34;;;;;;;21.13;15.60;;;13.20;99.90;;;;;;6130154;23;20215;-82
2023/05/20 06:29:02;;;;;;;23.42;17.95;;;13.40;99.90;;;;;;6129386;23;20530;-81
2023/05/20 06:31:29;;;;;;;24.50;18.15;;;13.30;99.90;;;;;;6127210;23;20192;-81
2023/05/20 06:33:56;;;;;;;23.08;16.90;;;13.30;99.90;;;;;;6129437;23;20190;-82
2023/05/20 06:36:26;;;;;;;26.73;17.63;;;13.20;99.90;;;;;;6130362;23;20509;-83
2023/05/20 06:38:52;;;;;;;24.65;18.08;;;13.30;99.90;;;;;;6130090;23;20206;-81
2023/05/20 06:41:21;;;;;;;21.70;17.40;;;13.30;99.90;;;;;;6130403;23;20253;-78
2023/05/20 06:43:48;;;;;;;18.23;15.90;;;13.30;99.90;;;;;;6129704;23;20389;-82
2023/05/20 06:46:18;;;;;;;22.90;15.80;;;13.40;99.90;;;;;;6112129;23;20174;-80
2023/05/20 06:48:45;;;;;;;21.65;17.60;;;13.50;99.90;;;;;;6104444;23;20269;-80
2023/05/20 06:51:12;;;;;;;19.30;16.27;;;13.40;99.90;;;;;;6128976;23;20190;-79
2023/05/20 06:53:40;;;;;;;21.25;16.42;;;13.50;99.90;;;;;;6129268;23;20185;-81
2023/05/20 06:56:06;;;;;;;19.88;15.77;;;13.50;99.90;;;;;;6129685;23;20181;-79
2023/05/20 06:58:34;;;;;;;23.25;17.35;;;13.50;99.90;;;;;;6129744;23;20217;-78
2023/05/20 07:01:00;;;;;;;23.98;16.73;;;13.40;99.90;;;;;;6104484;23;20513;-81
2023/05/20 07:03:28;;;;;;;24.60;17.25;;;13.40;99.90;;;;;;6131654;23;20249;-81
2023/05/20 07:05:55;;;;;;;22.58;16.73;;;13.50;99.90;;;;;;6131685;23;20398;-79
2023/05/20 07:08:22;;;;;;;21.05;16.58;;;13.60;99.90;;;;;;6131216;23;20245;-80
2023/05/20 07:10:49;;;;;;;24.85;17.05;;;13.60;99.90;;;;;;6130191;23;20192;-79
2023/05/20 07:13:16;;;;;;;22.95;16.02;;;13.50;99.90;;;;;;6130562;23;20177;-80
2023/05/20 07:15:46;;;;;;;25.17;16.88;;;13.50;99.90;;;;;;6130396;23;20272;-77
2023/05/20 07:18:14;;;;;;;23.40;15.98;;;13.60;99.90;;;;;;6128751;23;20186;-78
2023/05/20 07:20:43;;;;;;;19.75;15.07;;;13.70;99.90;;;;;;6128691;23;20177;-77
2023/05/20 07:23:10;;;;;;;24.77;17.98;;;13.80;99.90;;;;;;6132454;23;20186;-81
2023/05/20 07:25:40;;;;;;;15.63;13.25;;;13.80;99.90;;;;;;6110963;23;20504;-80
2023/05/20 07:28:07;;;;;;;19.98;15.73;;;13.80;99.90;;;;;;6129302;23;20186;-82
2023/05/20 07:30:35;;;;;;;21.90;15.07;;;13.90;99.90;;;;;;6130946;23;20252;-81
2023/05/20 07:33:02;;;;;;;23.20;14.93;;;14.10;99.90;;;;;;6128633;23;20186;-79
2023/05/20 07:35:29;;;;;;;20.25;15.32;;;14.00;99.90;;;;;;6130508;23;20185;-79
2023/05/20 07:37:56;;;;;;;20.85;13.95;;;14.10;99.90;;;;;;6129633;23;20177;-78
2023/05/20 07:40:23;;;;;;;22.88;16.20;;;14.00;99.90;;;;;;6103101;23;20405;-80
2023/05/20 07:42:50;;;;;;;19.45;15.00;;;13.90;99.90;;;;;;6128760;23;20189;-80
2023/05/20 07:45:17;;;;;;;20.05;15.10;;;13.80;99.90;;;;;;6130275;23;20185;-82
2023/05/20 07:47:44;;;;;;;17.15;13.75;;;14.10;99.90;;;;;;6128691;23;20186;-79
2023/05/20 07:50:11;;;;;;;18.17;14.90;;;14.30;99.90;;;;;;6128452;23;20217;-81
2023/05/20 07:52:38;;;;;;;23.55;16.50;;;14.30;99.90;;;;;;6129178;23;20245;-79
2023/05/20 07:55:24;;;;;;;17.88;15.10;;;14.40;99.90;;;;;;6038747;23;20227;-77
2023/05/20 07:57:54;;;;;;;19.58;15.07;;;14.30;99.90;;;;;;6038659;23;20180;-81
2023/05/20 08:00:21;;;;;;;20.42;16.40;;;14.50;99.90;;;;;;6040157;23;20556;-79
2023/05/20 08:02:48;;;;;;;24.15;14.02;;;14.80;99.90;;;;;;6039654;23;20211;-85
2023/05/20 08:05:16;;;;;;;19.08;14.45;;;14.90;99.90;;;;;;6039195;23;20192;-80
2023/05/20 08:07:43;;;;;;;24.70;15.15;;;14.90;99.90;;;;;;6039584;23;20194;-79
2023/05/20 08:10:10;;;;;;;18.58;12.65;;;15.00;99.90;;;;;;6038613;23;20219;-82
2023/05/20 08:12:37;;;;;;;15.07;13.50;;;14.90;99.90;;;;;;6049075;23;20214;-80
2023/05/20 08:15:04;;;;;;;16.50;14.10;;;14.70;99.90;;;;;;6128345;23;20236;-81
2023/05/20 08:17:32;;;;;;;14.63;13.13;;;14.70;99.90;;;;;;6128830;23;20189;-78
2023/05/20 08:20:00;;;;;;;14.27;12.73;;;14.80;99.90;;;;;;6128416;23;20249;-84
2023/05/20 08:22:27;;;;;;;15.15;11.65;;;15.00;99.90;;;;;;6128939;23;20434;-84
2023/05/20 08:24:54;;;;;;;17.40;13.73;;;15.20;99.90;;;;;;6129231;23;20214;-82
2023/05/20 08:27:21;;;;;;;15.13;12.23;;;15.50;99.90;;;;;;6130257;23;20180;-80
2023/05/20 08:29:48;;;;;;;12.47;11.17;;;15.40;99.90;;;;;;6128012;23;20277;-82
2023/05/20 08:32:15;;;;;;;13.30;11.80;;;15.40;99.90;;;;;;6129142;23;20814;-82
2023/05/20 08:34:42;;;;;;;14.33;12.40;;;15.50;99.90;;;;;;6129811;23;20542;-79
2023/05/20 08:37:09;;;;;;;28.87;12.70;;;15.60;99.90;;;;;;6128988;23;20533;-78
2023/05/20 08:39:36;;;;;;;12.73;10.60;;;15.80;99.90;;;;;;6132424;23;20406;-78
2023/05/20 08:42:05;;;;;;;14.83;10.80;;;15.40;99.90;;;;;;6128241;23;20385;-81
2023/05/20 08:44:33;;;;;;;12.10;10.63;;;15.70;99.90;;;;;;6128788;23;20393;-78
2023/05/20 08:47:03;;;;;;;15.13;11.20;;;16.00;99.90;;;;;;6127665;23;20382;-85
2023/05/20 08:49:31;;;;;;;22.43;9.80;;;16.50;99.90;;;;;;6128609;23;20394;-80
2023/05/20 08:52:02;;;;;;;14.07;11.40;;;16.90;99.90;;;;;;6128140;23;20749;-80
2023/05/20 08:54:48;;;;;;;12.10;10.63;;;17.40;99.90;;;;;;6129732;23;20383;-81
2023/05/20 08:57:15;;;;;;;11.97;10.77;;;17.60;99.90;;;;;;6132106;23;20368;-81
2023/05/20 08:59:45;;;;;;;14.17;10.03;;;17.10;99.90;;;;;;6133844;23;20382;-78
2023/05/20 09:02:13;;;;;;;11.03;9.90;;;17.10;99.90;;;;;;6149581;23;20430;-81
2023/05/20 09:04:40;;;;;;;12.87;9.93;;;17.00;99.90;;;;;;6125019;23;20408;-79
2023/05/20 09:07:07;;;;;;;11.07;10.00;;;17.20;99.90;;;;;;6149678;23;20459;-81
2023/05/20 09:09:35;;;;;;;11.00;9.00;;;17.40;99.90;;;;;;6144530;23;20440;-82
2023/05/20 09:12:02;;;;;;;9.70;8.73;;;18.00;99.90;;;;;;6141981;23;20378;-81
2023/05/20 09:14:30;;;;;;;10.37;9.37;;;18.00;99.90;;;;;;6117174;23;20405;-82
2023/05/20 09:16:57;;;;;;;10.93;8.43;;;18.00;99.90;;;;;;6114005;23;20411;-82
2023/05/20 09:19:25;;;;;;;12.33;9.67;;;17.90;99.90;;;;;;6138837;23;20422;-80
2023/05/20 09:21:53;;;;;;;9.40;8.30;;;17.60;99.90;;;;;;6141554;23;20397;-80
2023/05/20 09:24:25;;;;;;;9.50;8.53;;;17.40;99.90;;;;;;6109337;23;20392;-82
2023/05/20 09:26:52;;;;;;;8.50;7.67;;;17.30;99.90;;;;;;6129653;23;20412;-86
2023/05/20 09:29:20;;;;;;;9.67;8.00;;;17.00;99.90;;;;;;6130549;23;20481;-81
2023/05/20 09:31:48;;;;;;;8.97;8.10;;;17.30;99.90;;;;;;6105737;23;20419;-83
2023/05/20 09:34:19;;;;;;;9.23;8.33;;;17.40;99.90;;;;;;6128866;23;20802;-80
2023/05/20 09:36:52;;;;;;;10.40;9.30;;;17.30;99.90;;;;;;6128975;23;20462;-79
2023/05/20 09:39:26;;;;;;;8.07;7.00;;;17.50;99.90;;;;;;6103275;23;20364;-81
2023/05/20 09:42:04;;;;;;;8.63;7.70;;;17.60;99.90;;;;;;6129086;23;20367;-82
2023/05/20 09:44:33;;;;;;;8.00;7.30;;;17.50;99.90;;;;;;6128761;23;20344;-80
2023/05/20 09:47:01;;;;;;;9.40;8.20;;;17.20;99.90;;;;;;6127648;23;20376;-84
2023/05/20 09:49:28;;;;;;;12.00;9.37;;;17.10;99.90;;;;;;6131731;23;20442;-81
2023/05/20 09:51:57;;;;;;;7.77;6.97;;;16.80;99.90;;;;;;6130238;23;20401;-80
2023/05/20 09:54:24;;;;;;;8.47;7.67;;;17.00;99.90;;;;;;6130545;23;20576;-82
2023/05/20 09:56:53;;;;;;;10.60;8.30;;;17.80;99.90;;;;;;6109632;23;20436;-82
2023/05/20 09:59:22;;;;;;;9.60;6.90;;;18.00;99.90;;;;;;6135764;23;20439;-79
2023/05/20 10:01:49;;;;;;;8.33;6.93;;;18.00;99.90;;;;;;6130811;23;20401;-78
2023/05/20 10:04:19;;;;;;;7.83;6.90;;;18.00;99.90;;;;;;6131645;23;20384;-77
2023/05/20 10:07:10;;;;;;;12.63;8.63;;;18.10;99.90;;;;;;6130675;23;20412;-83
2023/05/20 10:10:05;;;;;;;10.20;7.90;;;18.80;99.90;;;;;;6131120;23;20408;-81
2023/05/20 10:12:45;;;;;;;9.27;8.27;;;19.00;99.90;;;;;;6131539;23;20498;-84
2023/05/20 10:15:31;;;;;;;9.83;8.80;;;18.90;99.90;;;;;;6105406;23;20390;-80
2023/05/20 10:18:13;;;;;;;9.00;8.17;;;18.80;99.90;;;;;;6131645;23;20387;-79
2023/05/20 10:20:47;;;;;;;8.40;7.63;;;18.10;99.90;;;;;;6131609;23;20365;-86
2023/05/20 10:23:23;;;;;;;10.10;8.17;;;17.60;99.90;;;;;;6132175;23;20373;-81
2023/05/20 10:25:52;;;;;;;10.80;8.43;;;17.60;99.90;;;;;;6129631;23;20400;-79
2023/05/20 10:28:40;;;;;;;11.27;8.17;;;18.00;99.90;;;;;;6130286;23;20370;-80
2023/05/20 10:31:21;;;;;;;8.83;8.03;;;18.30;99.90;;;;;;6130367;23;20433;-82
2023/05/20 10:33:51;;;;;;;9.07;8.13;;;18.20;99.90;;;;;;6130869;23;20361;-79
2023/05/20 10:36:26;;;;;;;9.83;8.83;;;18.30;99.90;;;;;;6131325;23;20718;-82
2023/05/20 10:38:55;;;;;;;12.47;10.80;;;19.00;99.90;;;;;;6129666;23;20358;-80
2023/05/20 10:41:27;;;;;;;8.80;7.90;;;19.20;99.90;;;;;;6130502;23;20716;-80
2023/05/20 10:44:04;;;;;;;7.87;7.07;;;19.60;99.90;;;;;;6130265;23;20362;-83
2023/05/20 10:46:33;;;;;;;10.00;8.17;;;19.70;99.90;;;;;;6129697;23;20705;-80
2023/05/20 10:49:20;;;;;;;9.37;8.47;;;19.80;99.90;;;;;;6130557;23;20632;-81
2023/05/20 10:51:53;;;;;;;9.60;8.60;;;19.40;99.90;;;;;;6130987;23;20381;-83
2023/05/20 10:54:21;;;;;;;8.97;8.10;;;19.00;99.90;;;;;;6104493;23;20777;-79
2023/05/20 10:56:52;;;;;;;9.43;8.47;;;18.90;99.90;;;;;;6130207;23;20404;-81
2023/05/20 10:59:20;;;;;;;9.33;8.23;;;19.50;99.90;;;;;;6129443;23;20466;-83
2023/05/20 11:01:48;;;;;;;10.27;9.27;;;20.00;99.90;;;;;;6129939;23;20401;-79
2023/05/20 11:04:18;;;;;;;11.83;9.60;;;19.50;99.90;;;;;;6130223;23;20392;-82
2023/05/20 11:06:55;;;;;;;11.47;9.73;;;19.00;99.90;;;;;;6131320;23;20375;-81
2023/05/20 11:09:23;;;;;;;10.93;9.80;;;19.20;99.90;;;;;;6130689;23;20710;-80
2023/05/20 11:11:52;;;;;;;11.87;9.43;;;19.90;99.90;;;;;;6130619;23;20391;-82
2023/05/20 11:14:20;;;;;;;9.63;8.73;;;19.50;99.90;;;;;;6105519;23;20940;-83
2023/05/20 11:16:52;;;;;;;12.00;10.77;;;19.60;99.90;;;;;;6129954;23;20430;-83
2023/05/20 11:19:19;;;;;;;12.00;10.77;;;19.40;99.90;;;;;;6130575;23;20403;-81
2023/05/20 11:21:46;;;;;;;9.60;8.67;;;19.40;99.90;;;;;;6129265;23;20374;-80
2023/05/20 11:24:23;;;;;;;10.30;8.87;;;19.20;99.90;;;;;;6129263;23;20783;-81
2023/05/20 11:26:51;;;;;;;12.53;11.20;;;19.30;99.90;;;;;;6103944;23;20447;-83
2023/05/20 11:29:19;;;;;;;11.07;9.93;;;19.20;99.90;;;;;;6130007;23;20473;-80
2023/05/20 11:31:48;;;;;;;9.93;9.00;;;18.80;99.90;;;;;;6130275;23;20408;-80
2023/05/20 11:34:20;;;;;;;9.27;8.37;;;18.70;99.90;;;;;;6129130;23;20661;-80
2023/05/20 11:36:58;;;;;;;11.20;10.10;;;18.40;99.90;;;;;;6127699;23;20425;-79
2023/05/20 11:39:28;;;;;;;10.53;9.43;;;18.50;99.90;;;;;;6129969;23;20404;-83
2023/05/20 11:41:57;;;;;;;13.70;10.40;;;18.70;99.90;;;;;;6127603;23;20387;-80
2023/05/20 11:44:25;;;;;;;9.60;8.63;;;18.80;99.90;;;;;;6130160;23;20728;-84
2023/05/20 11:47:02;;;;;;;9.83;8.83;;;19.30;99.90;;;;;;6105428;23;20383;-81
2023/05/20 11:49:37;;;;;;;10.70;9.77;;;19.50;99.90;;;;;;6130185;23;20492;-83
2023/05/20 11:52:08;;;;;;;13.00;9.87;;;19.20;99.90;;;;;;6129911;23;20525;-83
2023/05/20 11:54:35;;;;;;;11.83;10.63;;;18.90;99.90;;;;;;6105071;23;20458;-83
2023/05/20 11:57:02;;;;;;;12.07;8.93;;;18.70;99.90;;;;;;6129260;23;20378;-80
2023/05/20 11:59:32;;;;;;;10.17;9.10;;;19.00;99.90;;;;;;6130318;23;20400;-80
2023/05/20 12:01:59;;;;;;;9.83;8.80;;;19.20;99.90;;;;;;6106532;23;20382;-82
2023/05/20 12:04:26;;;;;;;9.53;8.60;;;19.30;99.90;;;;;;6130582;23;20442;-80
2023/05/20 12:06:54;;;;;;;11.03;8.37;;;19.30;99.90;;;;;;6105639;23;20383;-82
2023/05/20 12:09:21;;;;;;;11.83;10.07;;;19.30;99.90;;;;;;6130485;23;20711;-82
2023/05/20 12:11:49;;;;;;;11.87;9.93;;;19.40;99.90;;;;;;6129692;23;21047;-84
2023/05/20 12:14:15;;;;;;;10.63;9.63;;;19.90;99.90;;;;;;6128076;23;20455;-83
2023/05/20 12:16:44;;;;;;;9.10;7.87;;;20.00;99.90;;;;;;6103084;23;20451;-81
2023/05/20 12:19:10;;;;;;;11.83;8.73;;;19.30;99.90;;;;;;6127876;23;20381;-79
2023/05/20 12:21:38;;;;;;;10.80;9.70;;;19.30;99.90;;;;;;6130105;23;20371;-81
2023/05/20 12:24:05;;;;;;;12.80;10.60;;;18.70;99.90;;;;;;6103822;23;20373;-78
2023/05/20 12:26:34;;;;;;;11.13;10.03;;;18.50;99.90;;;;;;6128047;23;20448;-81
2023/05/20 12:29:01;;;;;;;10.87;9.30;;;18.40;99.90;;;;;;6098610;23;20466;-77
2023/05/20 12:31:28;;;;;;;11.30;10.20;;;18.30;99.90;;;;;;6128456;23;20438;-81
2023/05/20 12:33:59;;;;;;;14.53;10.27;;;18.20;99.90;;;;;;6127578;23;20386;-80
2023/05/20 12:36:26;;;;;;;12.47;10.70;;;18.10;99.90;;;;;;6127955;23;20628;-82
2023/05/20 12:38:53;;;;;;;13.47;10.30;;;18.30;99.90;;;;;;6128044;23;20386;-80